Time;durP1;ratioP1;P1;durP2;ratioP2;P2;SDS_P1;SDS_P2;PMS_P1;PMS_P2;Temp;Humidity;BMP_temperature;BMP_pressure;BME280_temperature;BME280_humidity;BME280_pressure;Samples;Min_cycle;Max_cycle;Signal;HPM_P1;HPM_P2
2021/10/14 00:01:16;;;;;;;21.40;12.47;;;;;;;;;;763871;181;919431;-62
2021/10/14 00:03:42;;;;;;;21.53;12.60;;;;;;;;;;770536;182;919135;-63
2021/10/14 00:06:08;;;;;;;24.43;11.67;;;;;;;;;;763158;182;917756;-62
2021/10/14 00:08:34;;;;;;;18.70;10.90;;;;;;;;;;761775;182;919644;-63
2021/10/14 00:10:59;;;;;;;17.73;10.90;;;;;;;;;;765587;182;918972;-61
2021/10/14 00:13:25;;;;;;;14.67;9.47;;;;;;;;;;771117;182;918833;-63
2021/10/14 00:15:51;;;;;;;19.77;11.07;;;;;;;;;;761611;182;919013;-63
2021/10/14 00:18:17;;;;;;;16.20;9.90;;;;;;;;;;751826;180;917985;-63
2021/10/14 00:20:43;;;;;;;19.50;11.30;;;;;;;;;;765576;181;920426;-62
2021/10/14 00:23:09;;;;;;;15.90;9.87;;;;;;;;;;767422;182;920034;-62
2021/10/14 00:25:35;;;;;;;19.40;10.93;;;;;;;;;;760132;183;921135;-64
2021/10/14 00:28:00;;;;;;;21.20;12.37;;;;;;;;;;769263;181;919148;-63
2021/10/14 00:30:26;;;;;;;15.93;10.15;;;;;;;;;;765979;182;917181;-64
2021/10/14 00:32:52;;;;;;;14.33;10.07;;;;;;;;;;765989;180;917164;-64
2021/10/14 00:35:18;;;;;;;17.13;10.63;;;;;;;;;;762782;182;922052;-63
2021/10/14 00:37:44;;;;;;;17.60;10.63;;;;;;;;;;763202;182;912818;-64
2021/10/14 00:40:10;;;;;;;13.27;8.90;;;;;;;;;;757516;183;918616;-64
2021/10/14 00:42:36;;;;;;;14.70;10.53;;;;;;;;;;765594;182;919787;-63
2021/10/14 00:45:03;;;;;;;14.87;10.40;;;;;;;;;;771977;182;919413;-64
2021/10/14 00:47:28;;;;;;;16.83;11.00;;;;;;;;;;762318;181;919420;-64
2021/10/14 00:49:54;;;;;;;15.87;9.80;;;;;;;;;;758103;182;920059;-64
2021/10/14 00:52:20;;;;;;;15.07;10.03;;;;;;;;;;768134;182;917381;-64
2021/10/14 00:54:46;;;;;;;20.47;10.50;;;;;;;;;;764698;179;918709;-65
2021/10/14 00:57:12;;;;;;;15.03;9.83;;;;;;;;;;765767;180;919762;-64
2021/10/14 00:59:37;;;;;;;12.63;8.10;;;;;;;;;;765246;181;918714;-63
2021/10/14 01:02:03;;;;;;;13.17;9.27;;;;;;;;;;762472;181;919157;-64
2021/10/14 01:04:29;;;;;;;16.70;10.60;;;;;;;;;;762341;182;919324;-63
2021/10/14 01:06:55;;;;;;;13.40;10.53;;;;;;;;;;761714;182;919226;-64
2021/10/14 01:09:21;;;;;;;21.03;10.50;;;;;;;;;;773112;181;919332;-64
2021/10/14 01:11:47;;;;;;;40.70;14.03;;;;;;;;;;764910;181;919736;-65
2021/10/14 01:14:13;;;;;;;41.67;13.73;;;;;;;;;;764464;182;920139;-64
2021/10/14 01:16:39;;;;;;;35.57;15.77;;;;;;;;;;770086;182;917880;-63
2021/10/14 01:19:05;;;;;;;32.55;15.68;;;;;;;;;;766864;182;920223;-63
2021/10/14 01:21:31;;;;;;;30.60;15.97;;;;;;;;;;767667;182;1019318;-62
2021/10/14 01:23:58;;;;;;;31.05;16.10;;;;;;;;;;764399;182;918889;-63
2021/10/14 01:26:23;;;;;;;37.10;18.03;;;;;;;;;;761124;182;918661;-64
2021/10/14 01:28:49;;;;;;;34.03;17.20;;;;;;;;;;763435;180;919134;-64
2021/10/14 01:31:15;;;;;;;37.50;18.83;;;;;;;;;;759740;182;918309;-64
2021/10/14 01:33:41;;;;;;;37.53;19.60;;;;;;;;;;768159;182;918769;-64
2021/10/14 01:36:07;;;;;;;37.33;21.70;;;;;;;;;;755474;183;918533;-62
2021/10/14 01:38:33;;;;;;;53.83;22.90;;;;;;;;;;766320;180;918682;-63
2021/10/14 01:40:58;;;;;;;108.67;27.03;;;;;;;;;;768760;182;920190;-61
2021/10/14 01:43:24;;;;;;;90.60;24.20;;;;;;;;;;761558;182;917311;-63
2021/10/14 01:45:50;;;;;;;76.20;22.27;;;;;;;;;;763195;182;919074;-63
2021/10/14 01:48:16;;;;;;;67.00;21.90;;;;;;;;;;768767;182;944318;-62
2021/10/14 01:50:42;;;;;;;46.67;20.60;;;;;;;;;;762713;182;918434;-62
2021/10/14 01:53:08;;;;;;;67.55;20.75;;;;;;;;;;765464;180;919678;-61
2021/10/14 01:55:34;;;;;;;78.80;21.37;;;;;;;;;;766264;182;918902;-62
2021/10/14 01:58:00;;;;;;;66.05;19.75;;;;;;;;;;767492;182;918208;-62
2021/10/14 02:00:26;;;;;;;94.57;19.07;;;;;;;;;;762573;182;917592;-62
2021/10/14 02:02:51;;;;;;;100.67;20.00;;;;;;;;;;761926;182;918731;-62
2021/10/14 02:05:17;;;;;;;31.60;14.70;;;;;;;;;;769839;182;919087;-62
2021/10/14 02:07:43;;;;;;;28.27;14.47;;;;;;;;;;768169;181;918377;-63
2021/10/14 02:10:09;;;;;;;38.83;18.00;;;;;;;;;;762237;181;919548;-62
2021/10/14 02:12:35;;;;;;;39.70;16.73;;;;;;;;;;772776;180;920808;-62
2021/10/14 02:15:01;;;;;;;36.00;16.20;;;;;;;;;;763133;181;919756;-62
2021/10/14 02:17:27;;;;;;;37.37;16.50;;;;;;;;;;764330;180;915956;-62
2021/10/14 02:19:52;;;;;;;41.17;18.20;;;;;;;;;;761826;181;916959;-62
2021/10/14 02:22:18;;;;;;;32.42;17.60;;;;;;;;;;769253;182;919674;-61
2021/10/14 02:24:44;;;;;;;34.53;16.63;;;;;;;;;;761113;182;919480;-62
2021/10/14 02:27:10;;;;;;;30.23;16.67;;;;;;;;;;751829;186;919134;-62
2021/10/14 02:29:36;;;;;;;39.73;17.97;;;;;;;;;;776000;182;901421;-61
2021/10/14 02:32:02;;;;;;;33.67;17.27;;;;;;;;;;763760;181;919216;-63
2021/10/14 02:34:28;;;;;;;37.25;17.05;;;;;;;;;;766086;181;919118;-62
2021/10/14 02:36:53;;;;;;;27.90;14.87;;;;;;;;;;769319;182;918857;-62
2021/10/14 02:39:19;;;;;;;38.83;15.53;;;;;;;;;;763931;181;918476;-61
2021/10/14 02:41:45;;;;;;;32.60;16.63;;;;;;;;;;764352;182;919373;-62
2021/10/14 02:44:12;;;;;;;55.00;17.65;;;;;;;;;;770192;181;919293;-61
2021/10/14 02:46:37;;;;;;;53.80;16.73;;;;;;;;;;751716;186;918482;-62
2021/10/14 02:49:03;;;;;;;47.87;17.07;;;;;;;;;;762722;182;920551;-65
2021/10/14 02:51:29;;;;;;;61.30;17.70;;;;;;;;;;764932;182;919444;-63
2021/10/14 02:53:55;;;;;;;72.27;15.50;;;;;;;;;;768168;182;1036214;-62
2021/10/14 02:56:21;;;;;;;60.47;15.07;;;;;;;;;;762323;182;919169;-62
2021/10/14 02:58:47;;;;;;;52.00;15.30;;;;;;;;;;764623;182;918342;-62
2021/10/14 03:01:13;;;;;;;36.63;13.40;;;;;;;;;;767757;182;918919;-61
2021/10/14 03:03:38;;;;;;;39.00;13.93;;;;;;;;;;759068;182;918800;-62
2021/10/14 03:06:04;;;;;;;44.97;13.97;;;;;;;;;;760952;183;918728;-62
2021/10/14 03:08:30;;;;;;;53.10;14.20;;;;;;;;;;766629;183;917861;-62
2021/10/14 03:10:56;;;;;;;35.97;13.93;;;;;;;;;;757325;183;920036;-62
2021/10/14 03:13:22;;;;;;;50.77;14.03;;;;;;;;;;763739;183;924689;-63
2021/10/14 03:15:48;;;;;;;43.07;13.20;;;;;;;;;;764363;183;919507;-61
2021/10/14 03:18:13;;;;;;;48.90;15.70;;;;;;;;;;773181;179;918643;-63
2021/10/14 03:20:39;;;;;;;41.80;14.17;;;;;;;;;;770765;181;923794;-62
2021/10/14 03:23:05;;;;;;;55.43;16.20;;;;;;;;;;755340;183;923279;-61
2021/10/14 03:25:31;;;;;;;39.72;13.90;;;;;;;;;;771926;181;918401;-63
2021/10/14 03:27:57;;;;;;;65.43;18.50;;;;;;;;;;766521;182;918907;-62
2021/10/14 03:30:23;;;;;;;33.92;15.23;;;;;;;;;;762496;182;920145;-63
2021/10/14 03:32:48;;;;;;;50.40;17.53;;;;;;;;;;770636;181;918424;-62
2021/10/14 03:35:14;;;;;;;27.13;12.40;;;;;;;;;;764123;181;919227;-61
2021/10/14 03:37:40;;;;;;;61.90;15.13;;;;;;;;;;765116;182;918994;-62
2021/10/14 03:40:06;;;;;;;32.67;14.67;;;;;;;;;;764056;182;920991;-61
2021/10/14 03:42:32;;;;;;;22.30;13.90;;;;;;;;;;763014;182;919376;-61
2021/10/14 03:44:58;;;;;;;22.70;12.93;;;;;;;;;;757752;182;918155;-61
2021/10/14 03:47:24;;;;;;;31.73;14.87;;;;;;;;;;760199;182;919299;-62
2021/10/14 03:49:50;;;;;;;36.00;15.20;;;;;;;;;;771672;181;918586;-62
2021/10/14 03:52:16;;;;;;;42.63;15.53;;;;;;;;;;767225;182;918566;-62
2021/10/14 03:54:41;;;;;;;24.60;14.50;;;;;;;;;;763005;183;618965;-62
2021/10/14 03:57:07;;;;;;;38.03;13.33;;;;;;;;;;768683;182;625278;-62
2021/10/14 03:59:33;;;;;;;31.33;14.13;;;;;;;;;;768571;182;625518;-62
2021/10/14 04:01:59;;;;;;;30.67;14.47;;;;;;;;;;768993;182;619055;-62
2021/10/14 04:04:25;;;;;;;25.70;13.90;;;;;;;;;;773212;182;638525;-62
2021/10/14 04:06:51;;;;;;;15.07;11.47;;;;;;;;;;755143;183;917847;-62
2021/10/14 04:09:17;;;;;;;21.37;12.20;;;;;;;;;;761763;182;919624;-61
2021/10/14 04:11:42;;;;;;;68.97;16.10;;;;;;;;;;765602;182;919533;-62
2021/10/14 04:14:08;;;;;;;89.67;15.87;;;;;;;;;;770048;182;918969;-59
2021/10/14 04:16:34;;;;;;;16.20;9.70;;;;;;;;;;766862;182;952958;-62
2021/10/14 04:19:00;;;;;;;17.23;11.33;;;;;;;;;;753910;183;1019732;-63
2021/10/14 04:21:26;;;;;;;21.93;10.90;;;;;;;;;;770692;182;916098;-62
2021/10/14 04:23:52;;;;;;;12.90;10.10;;;;;;;;;;769301;182;916312;-63
2021/10/14 04:26:17;;;;;;;17.50;11.13;;;;;;;;;;762477;180;921338;-63
2021/10/14 04:28:43;;;;;;;14.10;9.63;;;;;;;;;;768435;180;917862;-62
2021/10/14 04:31:09;;;;;;;11.00;8.73;;;;;;;;;;766098;179;919255;-63
2021/10/14 04:33:35;;;;;;;20.17;9.93;;;;;;;;;;767661;181;917953;-63
2021/10/14 04:36:01;;;;;;;13.43;9.13;;;;;;;;;;765640;181;911309;-64
2021/10/14 04:38:27;;;;;;;14.93;9.63;;;;;;;;;;766272;181;914107;-63
2021/10/14 04:40:53;;;;;;;13.17;9.83;;;;;;;;;;764748;182;919094;-63
2021/10/14 04:43:18;;;;;;;18.30;11.63;;;;;;;;;;758161;182;1006878;-62
2021/10/14 04:45:44;;;;;;;14.85;10.73;;;;;;;;;;770793;181;918155;-63
2021/10/14 04:48:10;;;;;;;18.80;11.03;;;;;;;;;;763018;181;922290;-64
2021/10/14 04:50:36;;;;;;;16.10;9.80;;;;;;;;;;763060;181;917730;-64
2021/10/14 04:53:02;;;;;;;20.30;11.50;;;;;;;;;;766518;182;919034;-64
2021/10/14 04:55:28;;;;;;;14.67;10.83;;;;;;;;;;760101;182;919711;-64
2021/10/14 04:57:53;;;;;;;17.00;9.90;;;;;;;;;;765449;181;919679;-64
2021/10/14 05:03:12;;;;;;;15.73;10.30;;;;;;;;;;775840;182;758406;-64
2021/10/14 05:05:38;;;;;;;15.67;9.97;;;;;;;;;;766652;180;911736;-63
2021/10/14 05:08:04;;;;;;;13.83;9.70;;;;;;;;;;766016;182;1019263;-64
2021/10/14 05:10:30;;;;;;;19.00;11.50;;;;;;;;;;770170;182;915610;-64
2021/10/14 05:12:56;;;;;;;29.83;13.30;;;;;;;;;;766193;182;921224;-63
2021/10/14 05:15:23;;;;;;;37.57;13.80;;;;;;;;;;767083;182;919567;-64
2021/10/14 05:17:48;;;;;;;39.57;14.90;;;;;;;;;;774463;182;916255;-64
2021/10/14 05:20:14;;;;;;;41.30;16.50;;;;;;;;;;767729;182;919418;-63
2021/10/14 05:22:40;;;;;;;26.57;14.90;;;;;;;;;;766296;182;920919;-64
2021/10/14 05:25:06;;;;;;;31.85;14.02;;;;;;;;;;768266;180;1008527;-63
2021/10/14 05:27:33;;;;;;;37.72;16.98;;;;;;;;;;773192;180;921964;-63
2021/10/14 05:29:57;;;;;;;69.03;19.80;;;;;;;;;;768405;182;1018094;-63
2021/10/14 05:32:23;;;;;;;35.80;19.07;;;;;;;;;;766815;182;918602;-63
2021/10/14 05:34:49;;;;;;;79.47;26.20;;;;;;;;;;773638;182;914351;-64
2021/10/14 05:37:15;;;;;;;61.97;21.63;;;;;;;;;;767358;182;919101;-62
2021/10/14 05:39:41;;;;;;;68.00;23.10;;;;;;;;;;765336;182;919887;-63
2021/10/14 05:42:07;;;;;;;123.83;24.07;;;;;;;;;;776036;180;924598;-63
2021/10/14 05:44:32;;;;;;;90.80;23.83;;;;;;;;;;767850;181;922535;-62
2021/10/14 05:46:58;;;;;;;113.57;23.20;;;;;;;;;;770035;182;919056;-62
2021/10/14 05:49:25;;;;;;;77.40;21.67;;;;;;;;;;771519;182;923103;-60
2021/10/14 05:51:51;;;;;;;80.57;22.47;;;;;;;;;;763615;183;918702;-61
2021/10/14 05:54:17;;;;;;;85.93;24.97;;;;;;;;;;766530;182;919797;-61
2021/10/14 05:56:42;;;;;;;89.47;25.00;;;;;;;;;;773247;182;627103;-61
2021/10/14 05:59:08;;;;;;;79.60;26.27;;;;;;;;;;777329;182;628680;-61
2021/10/14 06:01:34;;;;;;;107.53;24.77;;;;;;;;;;767008;182;962154;-61
2021/10/14 06:04:00;;;;;;;67.67;24.97;;;;;;;;;;766602;182;943042;-61
2021/10/14 06:06:26;;;;;;;89.27;24.20;;;;;;;;;;772094;182;951507;-61
2021/10/14 06:08:52;;;;;;;53.78;24.08;;;;;;;;;;769886;182;920030;-62
2021/10/14 06:11:17;;;;;;;64.37;23.57;;;;;;;;;;771403;182;918092;-62
2021/10/14 06:13:43;;;;;;;42.70;23.90;;;;;;;;;;774493;182;1020458;-63
2021/10/14 06:16:09;;;;;;;83.27;30.27;;;;;;;;;;765210;182;918287;-63
2021/10/14 06:18:37;;;;;;;111.37;36.33;;;;;;;;;;764854;182;920134;-63
2021/10/14 06:21:01;;;;;;;143.57;48.10;;;;;;;;;;766917;182;919765;-63
2021/10/14 06:23:27;;;;;;;133.73;47.13;;;;;;;;;;773442;182;921289;-63
2021/10/14 06:25:53;;;;;;;100.83;43.47;;;;;;;;;;769201;181;916120;-63
2021/10/14 06:28:18;;;;;;;107.80;47.47;;;;;;;;;;766453;181;920998;-63
2021/10/14 06:30:44;;;;;;;100.97;42.90;;;;;;;;;;772867;182;889187;-63
2021/10/14 06:33:10;;;;;;;110.43;46.23;;;;;;;;;;765593;182;919941;-63
2021/10/14 06:35:36;;;;;;;63.67;31.97;;;;;;;;;;764829;182;922871;-62
2021/10/14 06:38:02;;;;;;;72.87;32.45;;;;;;;;;;773823;182;919288;-62
2021/10/14 06:40:28;;;;;;;78.10;35.27;;;;;;;;;;764605;182;919459;-63
2021/10/14 06:42:53;;;;;;;69.10;34.28;;;;;;;;;;767655;182;937465;-64
2021/10/14 06:45:19;;;;;;;74.00;34.13;;;;;;;;;;768479;182;918048;-63
2021/10/14 06:47:45;;;;;;;59.93;31.83;;;;;;;;;;766197;182;914884;-63
2021/10/14 06:50:11;;;;;;;73.72;31.20;;;;;;;;;;767614;182;1000540;-63
2021/10/14 06:52:37;;;;;;;55.23;30.73;;;;;;;;;;766764;182;1019496;-61
2021/10/14 06:55:03;;;;;;;63.23;31.67;;;;;;;;;;772807;181;915172;-61
2021/10/14 06:57:29;;;;;;;60.90;31.00;;;;;;;;;;767892;182;921749;-62
2021/10/14 06:59:55;;;;;;;71.55;31.80;;;;;;;;;;770202;182;915465;-63
2021/10/14 07:02:21;;;;;;;67.43;33.80;;;;;;;;;;772867;182;1019890;-63
2021/10/14 07:04:46;;;;;;;73.77;33.20;;;;;;;;;;768264;181;919490;-62
2021/10/14 07:07:12;;;;;;;79.23;38.10;;;;;;;;;;765953;182;919793;-63
2021/10/14 07:09:39;;;;;;;76.43;37.63;;;;;;;;;;771250;182;914986;-62
2021/10/14 07:12:10;;;;;;;66.60;35.40;;;;;;;;;;768937;182;916472;-62
2021/10/14 07:14:31;;;;;;;86.87;36.23;;;;;;;;;;766089;182;913694;-63
2021/10/14 07:16:57;;;;;;;94.33;38.20;;;;;;;;;;766666;182;919097;-62
2021/10/14 07:19:23;;;;;;;92.17;38.50;;;;;;;;;;771064;182;916322;-63
2021/10/14 07:21:49;;;;;;;95.33;42.10;;;;;;;;;;768233;182;922061;-63
2021/10/14 07:24:17;;;;;;;82.17;37.63;;;;;;;;;;767592;182;911089;-63
2021/10/14 07:26:41;;;;;;;97.27;39.00;;;;;;;;;;773231;182;920066;-63
2021/10/14 07:29:06;;;;;;;84.20;40.40;;;;;;;;;;764437;182;916798;-63
2021/10/14 07:31:32;;;;;;;90.33;40.70;;;;;;;;;;762732;182;907142;-62
2021/10/14 07:33:58;;;;;;;92.40;37.10;;;;;;;;;;766975;182;919193;-63
2021/10/14 07:36:24;;;;;;;80.97;38.67;;;;;;;;;;769352;182;919261;-63
2021/10/14 07:38:50;;;;;;;67.50;34.60;;;;;;;;;;767232;182;919362;-64
2021/10/14 07:41:16;;;;;;;58.50;29.83;;;;;;;;;;767201;182;919480;-63
2021/10/14 07:43:41;;;;;;;57.00;29.53;;;;;;;;;;769734;182;1009542;-63
2021/10/14 07:46:08;;;;;;;54.07;27.60;;;;;;;;;;764791;182;919374;-63
2021/10/14 07:48:33;;;;;;;68.87;30.10;;;;;;;;;;767634;182;918824;-63
2021/10/14 07:51:00;;;;;;;59.45;30.50;;;;;;;;;;772811;182;916886;-63
2021/10/14 07:53:25;;;;;;;81.47;38.73;;;;;;;;;;766926;182;918269;-64
2021/10/14 07:55:51;;;;;;;73.60;39.90;;;;;;;;;;765973;182;919436;-63
2021/10/14 07:58:17;;;;;;;67.87;36.33;;;;;;;;;;773256;182;919975;-64
2021/10/14 08:00:42;;;;;;;89.30;42.37;;;;;;;;;;765380;182;919340;-63
2021/10/14 08:03:08;;;;;;;78.47;39.17;;;;;;;;;;767518;182;946201;-64
2021/10/14 08:05:34;;;;;;;93.70;46.30;;;;;;;;;;770498;180;920073;-63
2021/10/14 08:08:00;;;;;;;94.73;43.60;;;;;;;;;;766277;183;919467;-64
2021/10/14 08:10:26;;;;;;;96.90;46.85;;;;;;;;;;768517;182;920299;-62
2021/10/14 08:12:52;;;;;;;129.77;56.67;;;;;;;;;;766678;182;920062;-63
2021/10/14 08:15:18;;;;;;;123.97;55.23;;;;;;;;;;775304;182;918759;-63
2021/10/14 08:17:43;;;;;;;118.83;53.80;;;;;;;;;;768534;182;919258;-63
2021/10/14 08:20:09;;;;;;;105.20;53.47;;;;;;;;;;766649;182;920273;-63
2021/10/14 08:22:36;;;;;;;106.50;50.30;;;;;;;;;;772887;182;919368;-62
2021/10/14 08:25:04;;;;;;;89.77;45.50;;;;;;;;;;770712;181;919008;-63
2021/10/14 08:27:29;;;;;;;78.23;42.37;;;;;;;;;;764724;182;914815;-63
2021/10/14 08:29:55;;;;;;;87.60;42.90;;;;;;;;;;765299;182;991485;-61
2021/10/14 08:32:21;;;;;;;73.37;37.73;;;;;;;;;;768238;182;918569;-63
2021/10/14 08:34:47;;;;;;;72.87;37.03;;;;;;;;;;767760;182;1020023;-64
2021/10/14 08:37:13;;;;;;;61.40;36.50;;;;;;;;;;767447;182;920025;-63
2021/10/14 08:39:39;;;;;;;54.93;34.97;;;;;;;;;;773278;182;919453;-63
2021/10/14 08:42:04;;;;;;;47.10;30.13;;;;;;;;;;767446;182;920125;-63
2021/10/14 08:44:31;;;;;;;53.53;33.60;;;;;;;;;;767619;182;919591;-64
2021/10/14 08:46:56;;;;;;;50.77;31.80;;;;;;;;;;771414;182;919158;-63
2021/10/14 08:49:22;;;;;;;47.90;31.87;;;;;;;;;;768131;182;920939;-64
2021/10/14 08:51:48;;;;;;;39.58;28.58;;;;;;;;;;767724;182;922260;-64
2021/10/14 08:54:14;;;;;;;37.17;25.93;;;;;;;;;;765544;182;922460;-63
2021/10/14 08:56:40;;;;;;;38.53;26.50;;;;;;;;;;750788;184;919751;-64
2021/10/14 08:59:06;;;;;;;34.80;24.47;;;;;;;;;;765712;182;919828;-64
2021/10/14 09:01:32;;;;;;;36.63;26.23;;;;;;;;;;763318;182;919265;-63
2021/10/14 09:03:58;;;;;;;40.83;27.00;;;;;;;;;;774088;182;827389;-64
2021/10/14 09:06:24;;;;;;;38.33;26.97;;;;;;;;;;767850;182;1020947;-63
2021/10/14 09:08:50;;;;;;;35.05;25.60;;;;;;;;;;764234;182;918845;-64
2021/10/14 09:11:16;;;;;;;33.30;24.97;;;;;;;;;;772371;182;921363;-64
2021/10/14 09:13:44;;;;;;;33.47;22.50;;;;;;;;;;768637;182;919474;-64
2021/10/14 09:16:28;;;;;;;28.80;21.13;;;;;;;;;;762897;181;920000;-64
2021/10/14 09:18:53;;;;;;;27.00;21.37;;;;;;;;;;770904;181;919838;-63
2021/10/14 09:21:23;;;;;;;28.37;21.20;;;;;;;;;;769650;182;919784;-66
2021/10/14 09:23:49;;;;;;;28.63;21.27;;;;;;;;;;772533;182;918666;-64
2021/10/14 09:26:15;;;;;;;29.33;21.00;;;;;;;;;;766178;182;1021970;-64
2021/10/14 09:28:40;;;;;;;23.53;19.90;;;;;;;;;;767861;182;919352;-64
2021/10/14 09:31:07;;;;;;;24.80;18.70;;;;;;;;;;776094;182;919635;-63
2021/10/14 09:33:32;;;;;;;26.23;19.90;;;;;;;;;;770958;182;867823;-64
2021/10/14 09:36:04;;;;;;;31.23;21.08;;;;;;;;;;769320;182;919372;-63
2021/10/14 09:38:31;;;;;;;28.60;21.80;;;;;;;;;;766493;182;918475;-63
2021/10/14 09:41:04;;;;;;;28.53;20.40;;;;;;;;;;770956;182;1025296;-63
2021/10/14 09:43:30;;;;;;;29.93;20.90;;;;;;;;;;768463;182;920994;-63
2021/10/14 09:45:56;;;;;;;31.13;19.70;;;;;;;;;;765092;182;917150;-64
2021/10/14 09:48:21;;;;;;;28.20;18.90;;;;;;;;;;768131;182;920199;-62
2021/10/14 09:50:47;;;;;;;27.13;19.30;;;;;;;;;;772028;182;922214;-63
2021/10/14 09:53:14;;;;;;;25.43;17.50;;;;;;;;;;768729;182;918754;-62
2021/10/14 09:55:40;;;;;;;30.60;19.20;;;;;;;;;;769675;182;912267;-63
2021/10/14 09:58:06;;;;;;;26.50;19.10;;;;;;;;;;775167;182;917110;-63
2021/10/14 10:00:31;;;;;;;24.48;19.42;;;;;;;;;;768073;182;920404;-64
2021/10/14 10:02:57;;;;;;;30.53;21.13;;;;;;;;;;761673;182;927291;-63
2021/10/14 10:05:23;;;;;;;32.75;19.98;;;;;;;;;;768376;182;920079;-63
2021/10/14 10:07:49;;;;;;;26.50;19.20;;;;;;;;;;765641;182;919793;-64
2021/10/14 10:10:15;;;;;;;24.37;19.60;;;;;;;;;;770189;182;922882;-64
2021/10/14 10:12:41;;;;;;;29.70;19.80;;;;;;;;;;769258;182;918941;-63
2021/10/14 10:15:07;;;;;;;22.93;18.23;;;;;;;;;;774091;180;919188;-63
2021/10/14 10:17:37;;;;;;;25.45;20.37;;;;;;;;;;766562;182;919571;-63
2021/10/14 10:20:03;;;;;;;29.70;20.83;;;;;;;;;;765176;182;919566;-63
2021/10/14 10:22:50;;;;;;;29.63;18.40;;;;;;;;;;773673;182;920318;-63
2021/10/14 10:25:18;;;;;;;25.40;18.30;;;;;;;;;;769047;182;922407;-65
2021/10/14 10:27:44;;;;;;;28.87;18.50;;;;;;;;;;770483;182;918780;-65
2021/10/14 10:30:09;;;;;;;25.50;18.77;;;;;;;;;;768109;181;918697;-65
2021/10/14 10:32:46;;;;;;;25.03;18.43;;;;;;;;;;768045;181;919619;-65
2021/10/14 10:35:11;;;;;;;27.93;18.80;;;;;;;;;;773877;182;919012;-65
2021/10/14 10:37:40;;;;;;;27.60;18.10;;;;;;;;;;769800;182;918972;-65
2021/10/14 10:40:10;;;;;;;23.63;16.97;;;;;;;;;;768039;182;935158;-66
2021/10/14 10:42:38;;;;;;;22.27;17.10;;;;;;;;;;767911;182;1022437;-65
2021/10/14 10:45:05;;;;;;;25.10;17.17;;;;;;;;;;771986;182;919462;-64
2021/10/14 10:47:36;;;;;;;26.02;18.08;;;;;;;;;;766273;182;1020809;-64
2021/10/14 10:50:03;;;;;;;21.07;15.33;;;;;;;;;;766410;182;918672;-67
2021/10/14 10:52:29;;;;;;;21.90;15.40;;;;;;;;;;768516;182;919216;-65
2021/10/14 10:54:55;;;;;;;20.53;14.97;;;;;;;;;;773219;182;917009;-65
2021/10/14 10:57:27;;;;;;;24.07;16.80;;;;;;;;;;767523;182;918849;-65
2021/10/14 10:59:53;;;;;;;22.50;13.23;;;;;;;;;;770095;182;915977;-65
2021/10/14 11:02:19;;;;;;;20.25;13.40;;;;;;;;;;761871;182;1654774;-68
2021/10/14 11:04:45;;;;;;;21.10;13.90;;;;;;;;;;773966;182;919148;-64
2021/10/14 11:07:11;;;;;;;21.57;15.30;;;;;;;;;;770738;182;921380;-65
2021/10/14 11:09:38;;;;;;;21.03;14.93;;;;;;;;;;771816;182;627344;-65
2021/10/14 11:12:05;;;;;;;21.43;15.60;;;;;;;;;;776558;182;648708;-66
2021/10/14 11:14:36;;;;;;;21.60;16.07;;;;;;;;;;771956;182;920296;-65
2021/10/14 11:17:10;;;;;;;22.77;16.53;;;;;;;;;;766795;182;918222;-64
2021/10/14 11:19:39;;;;;;;20.60;16.10;;;;;;;;;;766271;182;919894;-65
2021/10/14 11:22:01;;;;;;;20.73;14.30;;;;;;;;;;768933;182;916698;-64
2021/10/14 11:24:31;;;;;;;20.03;13.57;;;;;;;;;;767624;182;919648;-65
2021/10/14 11:26:53;;;;;;;17.70;13.57;;;;;;;;;;769163;182;915580;-64
2021/10/14 11:29:23;;;;;;;20.50;14.93;;;;;;;;;;765516;182;914841;-64
2021/10/14 11:31:52;;;;;;;16.97;13.53;;;;;;;;;;776002;180;916495;-64
2021/10/14 11:34:13;;;;;;;19.97;15.10;;;;;;;;;;771069;182;915554;-64
2021/10/14 11:36:39;;;;;;;16.33;12.90;;;;;;;;;;768069;182;919353;-64
2021/10/14 11:39:06;;;;;;;16.20;11.30;;;;;;;;;;770779;181;918829;-65
2021/10/14 11:41:31;;;;;;;17.87;11.10;;;;;;;;;;770926;181;919207;-65
2021/10/14 11:43:57;;;;;;;17.83;11.70;;;;;;;;;;769993;182;920163;-65
2021/10/14 11:46:24;;;;;;;17.87;12.07;;;;;;;;;;770287;182;919297;-64
2021/10/14 11:48:49;;;;;;;17.00;12.00;;;;;;;;;;771917;182;920138;-65
2021/10/14 11:51:15;;;;;;;19.83;12.43;;;;;;;;;;766486;182;919349;-65
2021/10/14 11:53:41;;;;;;;20.33;14.07;;;;;;;;;;767057;182;918998;-64
2021/10/14 11:56:07;;;;;;;20.73;13.70;;;;;;;;;;771956;182;919834;-64
2021/10/14 11:58:33;;;;;;;19.00;12.50;;;;;;;;;;766944;182;918405;-65
2021/10/14 12:01:00;;;;;;;18.90;13.20;;;;;;;;;;765305;182;1549445;-65
2021/10/14 12:03:25;;;;;;;16.40;11.73;;;;;;;;;;776063;182;626386;-65
2021/10/14 12:05:51;;;;;;;18.90;12.07;;;;;;;;;;771338;182;922343;-65
2021/10/14 12:08:17;;;;;;;15.83;11.27;;;;;;;;;;768038;182;920432;-65
2021/10/14 12:10:48;;;;;;;20.73;13.10;;;;;;;;;;772266;182;1740385;-64
2021/10/14 12:13:09;;;;;;;18.43;12.20;;;;;;;;;;763820;182;1019800;-64
2021/10/14 12:15:35;;;;;;;19.13;13.00;;;;;;;;;;769015;182;920562;-64
2021/10/14 12:18:01;;;;;;;21.63;14.30;;;;;;;;;;769494;182;918986;-63
2021/10/14 12:20:27;;;;;;;20.87;13.70;;;;;;;;;;770988;182;919739;-66
2021/10/14 12:22:52;;;;;;;19.77;13.10;;;;;;;;;;767830;182;922744;-64
2021/10/14 12:25:45;;;;;;;20.57;14.23;;;;;;;;;;767332;182;915274;-64
2021/10/14 12:28:11;;;;;;;20.77;13.00;;;;;;;;;;769044;182;916470;-65
2021/10/14 12:30:37;;;;;;;17.90;11.30;;;;;;;;;;765629;182;915654;-64
2021/10/14 12:33:09;;;;;;;17.00;11.60;;;;;;;;;;768689;182;919724;-65
2021/10/14 12:35:34;;;;;;;20.13;13.63;;;;;;;;;;771149;182;919272;-65
2021/10/14 12:38:05;;;;;;;18.80;11.00;;;;;;;;;;771563;182;641326;-65
2021/10/14 12:40:30;;;;;;;13.07;10.60;;;;;;;;;;769991;182;919049;-64
2021/10/14 12:43:04;;;;;;;17.00;12.30;;;;;;;;;;767667;182;919079;-66
2021/10/14 12:45:30;;;;;;;14.50;10.63;;;;;;;;;;766249;182;919723;-65
2021/10/14 12:47:53;;;;;;;17.47;11.10;;;;;;;;;;766590;182;919367;-65
2021/10/14 12:53:04;;;;;;;16.70;10.70;;;;;;;;;;773169;181;918763;-65
2021/10/14 12:55:30;;;;;;;15.20;9.27;;;;;;;;;;769718;182;919794;-65
2021/10/14 12:57:56;;;;;;;19.00;9.17;;;;;;;;;;769388;182;921379;-65
2021/10/14 13:00:21;;;;;;;17.07;9.60;;;;;;;;;;768854;182;920389;-65
2021/10/14 13:02:48;;;;;;;13.07;8.40;;;;;;;;;;777373;179;966340;-65
2021/10/14 13:05:14;;;;;;;13.10;9.77;;;;;;;;;;766603;182;1020197;-65
2021/10/14 13:07:40;;;;;;;11.30;8.47;;;;;;;;;;767039;182;922946;-66
2021/10/14 13:10:06;;;;;;;20.80;9.90;;;;;;;;;;777157;182;618542;-66
2021/10/14 13:12:32;;;;;;;12.53;9.13;;;;;;;;;;772699;182;907487;-67
2021/10/14 13:14:58;;;;;;;15.75;10.45;;;;;;;;;;770996;182;932648;-65
2021/10/14 13:17:24;;;;;;;12.60;8.33;;;;;;;;;;771081;182;919583;-65
2021/10/14 13:19:50;;;;;;;14.00;9.30;;;;;;;;;;768510;182;919243;-66
2021/10/14 13:22:16;;;;;;;14.53;9.00;;;;;;;;;;765062;182;919167;-66
2021/10/14 13:24:42;;;;;;;13.33;8.47;;;;;;;;;;767495;182;920782;-65
2021/10/14 13:27:07;;;;;;;15.00;9.43;;;;;;;;;;777792;180;920282;-65
2021/10/14 13:29:33;;;;;;;16.60;8.87;;;;;;;;;;764974;182;919900;-67
2021/10/14 13:31:59;;;;;;;13.57;7.90;;;;;;;;;;765806;182;919429;-65
2021/10/14 13:34:26;;;;;;;13.73;8.30;;;;;;;;;;772049;182;877205;-65
2021/10/14 13:36:51;;;;;;;13.90;8.83;;;;;;;;;;767575;182;918221;-67
2021/10/14 13:39:17;;;;;;;11.53;9.10;;;;;;;;;;765896;182;1017492;-65
2021/10/14 13:41:43;;;;;;;12.73;9.67;;;;;;;;;;770034;182;919881;-64
2021/10/14 13:44:19;;;;;;;14.10;9.80;;;;;;;;;;767311;182;919109;-66
2021/10/14 13:46:44;;;;;;;13.50;9.27;;;;;;;;;;764175;182;920166;-65
2021/10/14 13:49:10;;;;;;;11.70;8.67;;;;;;;;;;765979;182;919701;-65
2021/10/14 13:51:36;;;;;;;16.30;8.50;;;;;;;;;;769037;182;919344;-65
2021/10/14 13:54:02;;;;;;;14.03;10.23;;;;;;;;;;766597;182;920545;-66
2021/10/14 13:56:28;;;;;;;14.03;9.20;;;;;;;;;;768548;182;919023;-65
2021/10/14 13:58:54;;;;;;;16.50;9.90;;;;;;;;;;774497;182;920208;-64
2021/10/14 14:01:19;;;;;;;10.80;8.70;;;;;;;;;;766108;182;919834;-66
2021/10/14 14:03:45;;;;;;;12.23;9.20;;;;;;;;;;768937;180;920675;-65